sensor_id;sensor_type;location;lat;lon;timestamp;temperature;humidity
75387;DHT22;63966;47.914;22.266;2022-11-20T00:02:46;2.00;91.56
75387;DHT22;63966;47.914;22.266;2022-11-20T00:05:49;2.00;91.50
75387;DHT22;63966;47.914;22.266;2022-11-20T00:08:55;2.00;91.50
75387;DHT22;63966;47.914;22.266;2022-11-20T00:11:59;1.98;91.67
75387;DHT22;63966;47.914;22.266;2022-11-20T00:15:03;1.88;91.86
75387;DHT22;63966;47.914;22.266;2022-11-20T00:18:07;1.90;92.01
75387;DHT22;63966;47.914;22.266;2022-11-20T00:21:13;1.90;91.92
75387;DHT22;63966;47.914;22.266;2022-11-20T00:24:16;1.88;91.96
75387;DHT22;63966;47.914;22.266;2022-11-20T00:27:20;1.93;91.99
75387;DHT22;63966;47.914;22.266;2022-11-20T00:30:23;1.91;91.62
75387;DHT22;63966;47.914;22.266;2022-11-20T00:33:27;1.91;91.76
75387;DHT22;63966;47.914;22.266;2022-11-20T00:36:33;1.88;91.82
75387;DHT22;63966;47.914;22.266;2022-11-20T00:39:37;1.86;91.86
75387;DHT22;63966;47.914;22.266;2022-11-20T00:42:40;1.90;91.85
75387;DHT22;63966;47.914;22.266;2022-11-20T00:45:43;1.86;91.87
75387;DHT22;63966;47.914;22.266;2022-11-20T00:48:48;1.95;91.31
75387;DHT22;63966;47.914;22.266;2022-11-20T00:51:51;1.95;91.68
75387;DHT22;63966;47.914;22.266;2022-11-20T00:54:55;1.95;91.44
75387;DHT22;63966;47.914;22.266;2022-11-20T00:57:58;1.97;91.31
75387;DHT22;63966;47.914;22.266;2022-11-20T01:01:08;1.97;91.36
75387;DHT22;63966;47.914;22.266;2022-11-20T01:04:12;1.94;91.51
75387;DHT22;63966;47.914;22.266;2022-11-20T01:07:15;2.00;91.65
75387;DHT22;63966;47.914;22.266;2022-11-20T01:10:19;2.00;91.43
75387;DHT22;63966;47.914;22.266;2022-11-20T01:13:22;2.01;91.37
75387;DHT22;63966;47.914;22.266;2022-11-20T01:16:43;2.08;90.90
75387;DHT22;63966;47.914;22.266;2022-11-20T01:19:49;2.07;91.03
75387;DHT22;63966;47.914;22.266;2022-11-20T01:22:53;2.11;90.93
75387;DHT22;63966;47.914;22.266;2022-11-20T01:25:59;2.13;90.83
75387;DHT22;63966;47.914;22.266;2022-11-20T01:29:03;2.08;91.07
75387;DHT22;63966;47.914;22.266;2022-11-20T01:32:07;2.11;90.97
75387;DHT22;63966;47.914;22.266;2022-11-20T01:35:11;2.17;91.08
75387;DHT22;63966;47.914;22.266;2022-11-20T01:38:16;2.21;90.87
75387;DHT22;63966;47.914;22.266;2022-11-20T01:41:20;2.10;90.99
75387;DHT22;63966;47.914;22.266;2022-11-20T01:47:57;2.07;91.04
75387;DHT22;63966;47.914;22.266;2022-11-20T01:51:01;2.01;90.97
75387;DHT22;63966;47.914;22.266;2022-11-20T01:54:12;1.98;91.34
75387;DHT22;63966;47.914;22.266;2022-11-20T01:57:19;2.05;91.11
75387;DHT22;63966;47.914;22.266;2022-11-20T02:00:23;2.05;90.83
75387;DHT22;63966;47.914;22.266;2022-11-20T02:03:26;2.01;91.07
75387;DHT22;63966;47.914;22.266;2022-11-20T02:06:39;1.94;90.66
75387;DHT22;63966;47.914;22.266;2022-11-20T02:09:44;1.88;90.97
75387;DHT22;63966;47.914;22.266;2022-11-20T02:12:47;1.87;91.19
75387;DHT22;63966;47.914;22.266;2022-11-20T02:19:28;1.86;90.85
75387;DHT22;63966;47.914;22.266;2022-11-20T02:22:42;1.80;91.00
75387;DHT22;63966;47.914;22.266;2022-11-20T02:25:50;1.77;90.94
75387;DHT22;63966;47.914;22.266;2022-11-20T02:28:54;1.78;90.81
75387;DHT22;63966;47.914;22.266;2022-11-20T02:32:00;1.81;90.85
75387;DHT22;63966;47.914;22.266;2022-11-20T02:38:34;1.83;90.36
75387;DHT22;63966;47.914;22.266;2022-11-20T02:41:37;1.88;90.03
75387;DHT22;63966;47.914;22.266;2022-11-20T02:44:41;1.88;90.09
75387;DHT22;63966;47.914;22.266;2022-11-20T02:47:45;1.84;90.26
75387;DHT22;63966;47.914;22.266;2022-11-20T02:50:48;1.83;90.48
75387;DHT22;63966;47.914;22.266;2022-11-20T02:53:51;1.80;90.76
75387;DHT22;63966;47.914;22.266;2022-11-20T02:56:55;1.84;90.28
75387;DHT22;63966;47.914;22.266;2022-11-20T02:59:58;1.84;90.24
75387;DHT22;63966;47.914;22.266;2022-11-20T03:03:02;1.83;90.27
75387;DHT22;63966;47.914;22.266;2022-11-20T03:06:05;1.83;90.17
75387;DHT22;63966;47.914;22.266;2022-11-20T03:09:09;1.78;90.27
75387;DHT22;63966;47.914;22.266;2022-11-20T03:12:13;1.76;89.90
75387;DHT22;63966;47.914;22.266;2022-11-20T03:15:16;1.84;90.17
75387;DHT22;63966;47.914;22.266;2022-11-20T03:18:20;1.81;89.74
75387;DHT22;63966;47.914;22.266;2022-11-20T03:21:24;1.78;90.03
75387;DHT22;63966;47.914;22.266;2022-11-20T03:24:27;1.76;89.58
75387;DHT22;63966;47.914;22.266;2022-11-20T03:27:35;1.73;89.89
75387;DHT22;63966;47.914;22.266;2022-11-20T03:30:38;1.68;89.91
75387;DHT22;63966;47.914;22.266;2022-11-20T03:33:42;1.67;89.88
75387;DHT22;63966;47.914;22.266;2022-11-20T03:36:45;1.73;89.90
75387;DHT22;63966;47.914;22.266;2022-11-20T03:39:49;1.76;89.83
75387;DHT22;63966;47.914;22.266;2022-11-20T03:42:52;1.77;89.68
75387;DHT22;63966;47.914;22.266;2022-11-20T03:46:01;1.78;90.06
75387;DHT22;63966;47.914;22.266;2022-11-20T03:49:05;1.81;89.66
75387;DHT22;63966;47.914;22.266;2022-11-20T03:52:08;1.81;89.36
75387;DHT22;63966;47.914;22.266;2022-11-20T03:55:12;1.78;89.60
75387;DHT22;63966;47.914;22.266;2022-11-20T03:58:15;1.81;89.27
75387;DHT22;63966;47.914;22.266;2022-11-20T04:01:30;1.77;89.59
75387;DHT22;63966;47.914;22.266;2022-11-20T04:04:33;1.80;89.19
75387;DHT22;63966;47.914;22.266;2022-11-20T04:07:37;1.84;89.11
75387;DHT22;63966;47.914;22.266;2022-11-20T04:10:40;1.78;89.23
75387;DHT22;63966;47.914;22.266;2022-11-20T04:13:57;1.80;89.52
75387;DHT22;63966;47.914;22.266;2022-11-20T04:17:00;1.81;89.28
75387;DHT22;63966;47.914;22.266;2022-11-20T04:20:04;1.88;89.19
75387;DHT22;63966;47.914;22.266;2022-11-20T04:23:08;1.93;88.90
75387;DHT22;63966;47.914;22.266;2022-11-20T04:26:12;1.94;88.82
75387;DHT22;63966;47.914;22.266;2022-11-20T04:29:15;1.87;89.23
75387;DHT22;63966;47.914;22.266;2022-11-20T04:32:19;1.87;89.22
75387;DHT22;63966;47.914;22.266;2022-11-20T04:35:22;1.81;89.34
75387;DHT22;63966;47.914;22.266;2022-11-20T04:38:25;1.93;88.92
75387;DHT22;63966;47.914;22.266;2022-11-20T04:41:32;1.93;89.33
75387;DHT22;63966;47.914;22.266;2022-11-20T04:44:35;1.91;89.30
75387;DHT22;63966;47.914;22.266;2022-11-20T04:47:39;1.84;89.59
75387;DHT22;63966;47.914;22.266;2022-11-20T04:50:42;1.87;89.64
75387;DHT22;63966;47.914;22.266;2022-11-20T04:53:46;1.84;89.83
75387;DHT22;63966;47.914;22.266;2022-11-20T04:56:49;1.88;89.04
75387;DHT22;63966;47.914;22.266;2022-11-20T04:59:53;1.81;89.63
75387;DHT22;63966;47.914;22.266;2022-11-20T05:02:56;1.83;89.75
75387;DHT22;63966;47.914;22.266;2022-11-20T05:06:04;1.94;89.32
75387;DHT22;63966;47.914;22.266;2022-11-20T05:09:08;1.91;89.60
75387;DHT22;63966;47.914;22.266;2022-11-20T05:12:12;1.90;89.63
75387;DHT22;63966;47.914;22.266;2022-11-20T05:15:15;1.94;90.20
75387;DHT22;63966;47.914;22.266;2022-11-20T05:18:19;2.00;89.86
75387;DHT22;63966;47.914;22.266;2022-11-20T05:21:22;1.97;89.95
75387;DHT22;63966;47.914;22.266;2022-11-20T05:24:26;2.04;89.75
75387;DHT22;63966;47.914;22.266;2022-11-20T05:27:29;2.01;89.72
75387;DHT22;63966;47.914;22.266;2022-11-20T05:30:33;2.05;90.09
75387;DHT22;63966;47.914;22.266;2022-11-20T05:33:39;2.10;89.98
75387;DHT22;63966;47.914;22.266;2022-11-20T05:36:42;2.20;89.68
75387;DHT22;63966;47.914;22.266;2022-11-20T05:39:46;2.08;89.93
75387;DHT22;63966;47.914;22.266;2022-11-20T05:42:49;2.13;89.86
75387;DHT22;63966;47.914;22.266;2022-11-20T05:45:55;2.11;89.89
75387;DHT22;63966;47.914;22.266;2022-11-20T05:48:59;2.13;90.06
75387;DHT22;63966;47.914;22.266;2022-11-20T05:52:03;2.10;89.86
75387;DHT22;63966;47.914;22.266;2022-11-20T05:55:06;2.18;89.88
75387;DHT22;63966;47.914;22.266;2022-11-20T05:58:10;2.17;90.06
75387;DHT22;63966;47.914;22.266;2022-11-20T06:04:17;2.15;89.81
75387;DHT22;63966;47.914;22.266;2022-11-20T06:07:20;2.18;89.57
75387;DHT22;63966;47.914;22.266;2022-11-20T06:10:23;2.29;89.71
75387;DHT22;63966;47.914;22.266;2022-11-20T06:13:27;2.28;89.76
75387;DHT22;63966;47.914;22.266;2022-11-20T06:16:30;2.28;89.76
75387;DHT22;63966;47.914;22.266;2022-11-20T06:19:33;2.29;89.81
75387;DHT22;63966;47.914;22.266;2022-11-20T06:22:37;2.34;89.52
75387;DHT22;63966;47.914;22.266;2022-11-20T06:25:42;2.29;89.96
75387;DHT22;63966;47.914;22.266;2022-11-20T06:28:45;2.34;90.09
75387;DHT22;63966;47.914;22.266;2022-11-20T06:31:49;2.43;89.50
75387;DHT22;63966;47.914;22.266;2022-11-20T06:34:52;2.45;89.57
75387;DHT22;63966;47.914;22.266;2022-11-20T06:37:56;2.38;89.64
75387;DHT22;63966;47.914;22.266;2022-11-20T06:41:00;2.39;89.99
75387;DHT22;63966;47.914;22.266;2022-11-20T06:44:04;2.34;90.24
75387;DHT22;63966;47.914;22.266;2022-11-20T06:47:08;2.41;89.97
75387;DHT22;63966;47.914;22.266;2022-11-20T06:50:12;2.38;89.94
75387;DHT22;63966;47.914;22.266;2022-11-20T06:53:16;2.48;90.05
75387;DHT22;63966;47.914;22.266;2022-11-20T06:56:19;2.53;89.73
75387;DHT22;63966;47.914;22.266;2022-11-20T06:59:23;2.67;89.19
75387;DHT22;63966;47.914;22.266;2022-11-20T07:02:26;2.64;89.37
75387;DHT22;63966;47.914;22.266;2022-11-20T07:05:31;2.77;89.21
75387;DHT22;63966;47.914;22.266;2022-11-20T07:08:34;2.72;89.10
75387;DHT22;63966;47.914;22.266;2022-11-20T07:11:38;2.70;89.49
75387;DHT22;63966;47.914;22.266;2022-11-20T07:14:41;2.77;89.23
75387;DHT22;63966;47.914;22.266;2022-11-20T07:17:45;2.83;89.31
75387;DHT22;63966;47.914;22.266;2022-11-20T07:20:48;2.90;89.08
75387;DHT22;63966;47.914;22.266;2022-11-20T07:23:52;2.99;89.23
75387;DHT22;63966;47.914;22.266;2022-11-20T07:26:55;3.08;88.91
75387;DHT22;63966;47.914;22.266;2022-11-20T07:29:59;3.11;89.07
75387;DHT22;63966;47.914;22.266;2022-11-20T07:33:02;3.10;88.26
75387;DHT22;63966;47.914;22.266;2022-11-20T07:36:06;3.10;89.09
75387;DHT22;63966;47.914;22.266;2022-11-20T07:39:09;3.21;88.81
75387;DHT22;63966;47.914;22.266;2022-11-20T07:42:13;3.22;88.00
75387;DHT22;63966;47.914;22.266;2022-11-20T07:45:21;3.22;88.26
75387;DHT22;63966;47.914;22.266;2022-11-20T07:48:25;3.29;88.31
75387;DHT22;63966;47.914;22.266;2022-11-20T07:51:29;3.31;88.04
75387;DHT22;63966;47.914;22.266;2022-11-20T07:54:32;3.27;88.44
75387;DHT22;63966;47.914;22.266;2022-11-20T07:57:35;3.43;87.98
75387;DHT22;63966;47.914;22.266;2022-11-20T08:00:39;3.49;88.39
75387;DHT22;63966;47.914;22.266;2022-11-20T08:03:43;3.59;87.58
75387;DHT22;63966;47.914;22.266;2022-11-20T08:06:46;3.73;87.44
75387;DHT22;63966;47.914;22.266;2022-11-20T08:09:50;3.80;87.13
75387;DHT22;63966;47.914;22.266;2022-11-20T08:12:53;3.93;86.62
75387;DHT22;63966;47.914;22.266;2022-11-20T08:16:15;3.97;87.10
75387;DHT22;63966;47.914;22.266;2022-11-20T08:19:19;4.06;86.75
75387;DHT22;63966;47.914;22.266;2022-11-20T08:22:24;4.03;87.00
75387;DHT22;63966;47.914;22.266;2022-11-20T08:25:31;3.87;87.78
75387;DHT22;63966;47.914;22.266;2022-11-20T08:28:34;3.97;88.02
75387;DHT22;63966;47.914;22.266;2022-11-20T08:31:38;3.97;87.61
75387;DHT22;63966;47.914;22.266;2022-11-20T08:34:41;3.91;87.86
75387;DHT22;63966;47.914;22.266;2022-11-20T08:37:48;3.91;87.74
75387;DHT22;63966;47.914;22.266;2022-11-20T08:40:51;4.00;87.16
75387;DHT22;63966;47.914;22.266;2022-11-20T08:44:13;4.06;86.73
75387;DHT22;63966;47.914;22.266;2022-11-20T08:47:17;4.25;86.75
75387;DHT22;63966;47.914;22.266;2022-11-20T08:50:20;4.30;86.42
75387;DHT22;63966;47.914;22.266;2022-11-20T08:53:24;4.41;86.50
75387;DHT22;63966;47.914;22.266;2022-11-20T08:56:27;4.54;85.55
75387;DHT22;63966;47.914;22.266;2022-11-20T08:59:31;4.56;85.53
75387;DHT22;63966;47.914;22.266;2022-11-20T09:02:54;5.06;84.87
75387;DHT22;63966;47.914;22.266;2022-11-20T09:06:03;5.01;83.36
75387;DHT22;63966;47.914;22.266;2022-11-20T09:09:07;5.20;83.43
75387;DHT22;63966;47.914;22.266;2022-11-20T09:12:10;5.24;84.12
75387;DHT22;63966;47.914;22.266;2022-11-20T09:15:13;5.16;83.56
75387;DHT22;63966;47.914;22.266;2022-11-20T09:18:17;5.17;83.84
75387;DHT22;63966;47.914;22.266;2022-11-20T09:21:21;5.20;84.19
75387;DHT22;63966;47.914;22.266;2022-11-20T09:24:26;5.21;84.22
75387;DHT22;63966;47.914;22.266;2022-11-20T09:27:30;5.23;83.78
75387;DHT22;63966;47.914;22.266;2022-11-20T09:30:34;5.21;84.24
75387;DHT22;63966;47.914;22.266;2022-11-20T09:33:38;5.19;84.39
75387;DHT22;63966;47.914;22.266;2022-11-20T09:36:41;5.31;84.00
75387;DHT22;63966;47.914;22.266;2022-11-20T09:39:44;5.21;84.32
75387;DHT22;63966;47.914;22.266;2022-11-20T09:46:45;5.13;83.43
75387;DHT22;63966;47.914;22.266;2022-11-20T09:50:00;5.01;84.25
75387;DHT22;63966;47.914;22.266;2022-11-20T09:53:32;5.04;83.62
75387;DHT22;63966;47.914;22.266;2022-11-20T09:56:40;5.07;84.08
75387;DHT22;63966;47.914;22.266;2022-11-20T10:00:00;5.24;84.48
75387;DHT22;63966;47.914;22.266;2022-11-20T10:03:49;5.42;83.23
75387;DHT22;63966;47.914;22.266;2022-11-20T10:07:15;5.47;82.51
75387;DHT22;63966;47.914;22.266;2022-11-20T10:10:54;5.40;83.21
75387;DHT22;63966;47.914;22.266;2022-11-20T10:31:02;5.42;82.61
75387;DHT22;63966;47.914;22.266;2022-11-20T10:37:26;5.35;82.31
75387;DHT22;63966;47.914;22.266;2022-11-20T10:40:43;5.20;83.04
75387;DHT22;63966;47.914;22.266;2022-11-20T10:43:49;5.07;83.81
75387;DHT22;63966;47.914;22.266;2022-11-20T10:46:55;5.16;83.02
75387;DHT22;63966;47.914;22.266;2022-11-20T10:50:04;5.27;83.41
75387;DHT22;63966;47.914;22.266;2022-11-20T10:53:43;5.31;82.28
75387;DHT22;63966;47.914;22.266;2022-11-20T10:56:50;5.30;82.73
75387;DHT22;63966;47.914;22.266;2022-11-20T11:03:07;5.42;81.89
75387;DHT22;63966;47.914;22.266;2022-11-20T11:06:36;5.42;82.16
75387;DHT22;63966;47.914;22.266;2022-11-20T11:09:44;5.40;82.04
75387;DHT22;63966;47.914;22.266;2022-11-20T11:12:49;5.47;82.33
75387;DHT22;63966;47.914;22.266;2022-11-20T11:15:53;5.58;81.29
75387;DHT22;63966;47.914;22.266;2022-11-20T11:19:23;5.66;81.78
75387;DHT22;63966;47.914;22.266;2022-11-20T11:22:30;5.73;81.20
75387;DHT22;63966;47.914;22.266;2022-11-20T11:25:36;5.59;81.24
75387;DHT22;63966;47.914;22.266;2022-11-20T11:28:39;5.69;81.51
75387;DHT22;63966;47.914;22.266;2022-11-20T11:31:42;5.66;80.95
75387;DHT22;63966;47.914;22.266;2022-11-20T11:34:59;5.82;81.57
75387;DHT22;63966;47.914;22.266;2022-11-20T11:38:16;5.83;80.15
75387;DHT22;63966;47.914;22.266;2022-11-20T11:41:23;5.95;80.02
75387;DHT22;63966;47.914;22.266;2022-11-20T11:44:36;6.02;79.41
75387;DHT22;63966;47.914;22.266;2022-11-20T11:48:00;6.16;80.35
75387;DHT22;63966;47.914;22.266;2022-11-20T11:51:09;6.24;80.14
75387;DHT22;63966;47.914;22.266;2022-11-20T12:00:57;6.30;80.22
75387;DHT22;63966;47.914;22.266;2022-11-20T12:07:35;6.06;79.96
75387;DHT22;63966;47.914;22.266;2022-11-20T12:17:10;6.03;79.83
75387;DHT22;63966;47.914;22.266;2022-11-20T12:20:14;5.92;80.57
75387;DHT22;63966;47.914;22.266;2022-11-20T12:23:27;5.98;80.81
75387;DHT22;63966;47.914;22.266;2022-11-20T12:33:44;6.30;79.67
75387;DHT22;63966;47.914;22.266;2022-11-20T12:37:22;6.42;79.23
75387;DHT22;63966;47.914;22.266;2022-11-20T12:40:35;6.45;78.81
75387;DHT22;63966;47.914;22.266;2022-11-20T12:57:45;6.52;78.13
75387;DHT22;63966;47.914;22.266;2022-11-20T13:07:41;6.47;79.63
75387;DHT22;63966;47.914;22.266;2022-11-20T13:10:59;6.52;79.01
75387;DHT22;63966;47.914;22.266;2022-11-20T13:20:44;6.74;79.33
75387;DHT22;63966;47.914;22.266;2022-11-20T13:23:48;6.68;79.28
75387;DHT22;63966;47.914;22.266;2022-11-20T13:30:19;6.61;80.03
75387;DHT22;63966;47.914;22.266;2022-11-20T13:33:36;6.51;79.75
75387;DHT22;63966;47.914;22.266;2022-11-20T13:36:50;6.41;80.09
75387;DHT22;63966;47.914;22.266;2022-11-20T13:43:38;6.27;80.93
75387;DHT22;63966;47.914;22.266;2022-11-20T13:46:46;6.19;80.61
75387;DHT22;63966;47.914;22.266;2022-11-20T13:49:49;6.16;81.37
75387;DHT22;63966;47.914;22.266;2022-11-20T13:53:04;6.23;80.83
75387;DHT22;63966;47.914;22.266;2022-11-20T13:56:47;6.13;81.01
75387;DHT22;63966;47.914;22.266;2022-11-20T14:00:01;6.03;81.24
75387;DHT22;63966;47.914;22.266;2022-11-20T14:03:21;6.09;81.43
75387;DHT22;63966;47.914;22.266;2022-11-20T14:06:47;6.03;81.57
75387;DHT22;63966;47.914;22.266;2022-11-20T14:09:56;6.03;81.32
75387;DHT22;63966;47.914;22.266;2022-11-20T14:13:12;6.06;81.29
75387;DHT22;63966;47.914;22.266;2022-11-20T14:16:23;6.05;81.77
75387;DHT22;63966;47.914;22.266;2022-11-20T14:19:29;6.00;82.19
75387;DHT22;63966;47.914;22.266;2022-11-20T14:22:33;5.93;82.38
75387;DHT22;63966;47.914;22.266;2022-11-20T14:25:41;5.81;82.48
75387;DHT22;63966;47.914;22.266;2022-11-20T14:28:49;5.75;82.99
75387;DHT22;63966;47.914;22.266;2022-11-20T14:31:55;5.78;83.04
75387;DHT22;63966;47.914;22.266;2022-11-20T14:35:06;5.72;83.12
75387;DHT22;63966;47.914;22.266;2022-11-20T14:38:21;5.66;82.93
75387;DHT22;63966;47.914;22.266;2022-11-20T14:41:25;5.62;83.43
75387;DHT22;63966;47.914;22.266;2022-11-20T14:44:31;5.56;83.65
75387;DHT22;63966;47.914;22.266;2022-11-20T14:47:36;5.56;83.90
75387;DHT22;63966;47.914;22.266;2022-11-20T14:50:39;5.51;84.20
75387;DHT22;63966;47.914;22.266;2022-11-20T14:53:43;5.50;84.46
75387;DHT22;63966;47.914;22.266;2022-11-20T14:57:00;5.48;84.77
75387;DHT22;63966;47.914;22.266;2022-11-20T15:03:15;5.34;84.86
75387;DHT22;63966;47.914;22.266;2022-11-20T15:06:26;5.27;85.14
75387;DHT22;63966;47.914;22.266;2022-11-20T15:09:30;5.24;85.69
75387;DHT22;63966;47.914;22.266;2022-11-20T15:12:39;5.21;85.75
75387;DHT22;63966;47.914;22.266;2022-11-20T15:15:51;5.24;85.78
75387;DHT22;63966;47.914;22.266;2022-11-20T15:18:55;5.16;86.14
75387;DHT22;63966;47.914;22.266;2022-11-20T15:21:59;5.20;86.08
75387;DHT22;63966;47.914;22.266;2022-11-20T15:25:12;5.17;86.36
75387;DHT22;63966;47.914;22.266;2022-11-20T15:28:40;5.10;86.82
75387;DHT22;63966;47.914;22.266;2022-11-20T15:31:44;5.14;86.44
75387;DHT22;63966;47.914;22.266;2022-11-20T15:34:48;5.09;86.29
75387;DHT22;63966;47.914;22.266;2022-11-20T15:37:51;5.07;86.63
75387;DHT22;63966;47.914;22.266;2022-11-20T15:40:55;5.12;86.70
75387;DHT22;63966;47.914;22.266;2022-11-20T15:43:59;5.04;86.63
75387;DHT22;63966;47.914;22.266;2022-11-20T15:47:02;5.03;86.61
75387;DHT22;63966;47.914;22.266;2022-11-20T15:50:11;4.94;87.07
75387;DHT22;63966;47.914;22.266;2022-11-20T15:53:18;5.00;87.26
75387;DHT22;63966;47.914;22.266;2022-11-20T15:56:21;4.99;87.16
75387;DHT22;63966;47.914;22.266;2022-11-20T15:59:25;4.92;87.58
75387;DHT22;63966;47.914;22.266;2022-11-20T16:02:29;4.92;87.74
75387;DHT22;63966;47.914;22.266;2022-11-20T16:05:32;4.93;87.35
75387;DHT22;63966;47.914;22.266;2022-11-20T16:08:37;4.97;87.26
75387;DHT22;63966;47.914;22.266;2022-11-20T16:11:40;4.92;87.57
75387;DHT22;63966;47.914;22.266;2022-11-20T16:14:44;4.87;87.78
75387;DHT22;63966;47.914;22.266;2022-11-20T16:18:11;4.85;87.70
75387;DHT22;63966;47.914;22.266;2022-11-20T16:21:15;4.83;87.82
75387;DHT22;63966;47.914;22.266;2022-11-20T16:24:19;4.76;87.89
75387;DHT22;63966;47.914;22.266;2022-11-20T16:27:23;4.71;88.38
75387;DHT22;63966;47.914;22.266;2022-11-20T16:30:26;4.62;88.98
75387;DHT22;63966;47.914;22.266;2022-11-20T16:33:30;4.54;88.80
75387;DHT22;63966;47.914;22.266;2022-11-20T16:36:34;4.45;89.13
75387;DHT22;63966;47.914;22.266;2022-11-20T16:39:38;4.46;89.25
75387;DHT22;63966;47.914;22.266;2022-11-20T16:42:41;4.37;89.30
75387;DHT22;63966;47.914;22.266;2022-11-20T16:45:45;4.25;89.59
75387;DHT22;63966;47.914;22.266;2022-11-20T16:48:53;4.20;89.74
75387;DHT22;63966;47.914;22.266;2022-11-20T16:51:58;4.11;89.95
75387;DHT22;63966;47.914;22.266;2022-11-20T16:55:01;4.03;90.58
75387;DHT22;63966;47.914;22.266;2022-11-20T16:58:05;4.13;90.45
75387;DHT22;63966;47.914;22.266;2022-11-20T17:01:12;4.07;90.34
75387;DHT22;63966;47.914;22.266;2022-11-20T17:04:16;4.11;90.26
75387;DHT22;63966;47.914;22.266;2022-11-20T17:07:20;4.10;90.31
75387;DHT22;63966;47.914;22.266;2022-11-20T17:10:24;4.06;90.41
75387;DHT22;63966;47.914;22.266;2022-11-20T17:13:29;4.04;90.19
75387;DHT22;63966;47.914;22.266;2022-11-20T17:16:39;4.14;90.06
75387;DHT22;63966;47.914;22.266;2022-11-20T17:19:43;4.13;89.99
75387;DHT22;63966;47.914;22.266;2022-11-20T17:22:47;4.18;89.78
75387;DHT22;63966;47.914;22.266;2022-11-20T17:25:50;4.18;89.45
75387;DHT22;63966;47.914;22.266;2022-11-20T17:29:05;4.04;89.87
75387;DHT22;63966;47.914;22.266;2022-11-20T17:32:09;3.90;90.27
75387;DHT22;63966;47.914;22.266;2022-11-20T17:35:13;3.77;90.60
75387;DHT22;63966;47.914;22.266;2022-11-20T17:38:16;3.69;91.00
75387;DHT22;63966;47.914;22.266;2022-11-20T17:41:21;3.54;91.33
75387;DHT22;63966;47.914;22.266;2022-11-20T17:44:25;3.35;91.61
75387;DHT22;63966;47.914;22.266;2022-11-20T17:47:29;3.24;92.29
75387;DHT22;63966;47.914;22.266;2022-11-20T17:50:32;3.21;93.04
75387;DHT22;63966;47.914;22.266;2022-11-20T17:53:38;3.18;92.96
75387;DHT22;63966;47.914;22.266;2022-11-20T17:56:42;3.03;93.05
75387;DHT22;63966;47.914;22.266;2022-11-20T18:00:04;2.80;93.10
75387;DHT22;63966;47.914;22.266;2022-11-20T18:03:08;2.69;93.11
75387;DHT22;63966;47.914;22.266;2022-11-20T18:09:19;2.69;93.92
75387;DHT22;63966;47.914;22.266;2022-11-20T18:12:22;2.63;93.64
75387;DHT22;63966;47.914;22.266;2022-11-20T18:15:26;2.57;93.69
75387;DHT22;63966;47.914;22.266;2022-11-20T18:18:30;2.46;93.82
75387;DHT22;63966;47.914;22.266;2022-11-20T18:21:35;2.34;93.95
75387;DHT22;63966;47.914;22.266;2022-11-20T18:24:39;2.20;94.09
75387;DHT22;63966;47.914;22.266;2022-11-20T18:27:44;2.21;94.39
75387;DHT22;63966;47.914;22.266;2022-11-20T18:30:48;2.17;94.42
75387;DHT22;63966;47.914;22.266;2022-11-20T18:33:52;2.26;94.48
75387;DHT22;63966;47.914;22.266;2022-11-20T18:36:57;2.15;94.60
75387;DHT22;63966;47.914;22.266;2022-11-20T18:40:00;2.13;94.64
75387;DHT22;63966;47.914;22.266;2022-11-20T18:43:04;2.04;94.57
75387;DHT22;63966;47.914;22.266;2022-11-20T18:46:26;1.97;94.62
75387;DHT22;63966;47.914;22.266;2022-11-20T18:49:31;1.97;94.76
75387;DHT22;63966;47.914;22.266;2022-11-20T18:52:40;1.97;94.86
75387;DHT22;63966;47.914;22.266;2022-11-20T18:55:44;2.04;94.97
75387;DHT22;63966;47.914;22.266;2022-11-20T18:58:47;2.11;94.91
75387;DHT22;63966;47.914;22.266;2022-11-20T19:01:51;2.17;94.74
75387;DHT22;63966;47.914;22.266;2022-11-20T19:04:55;2.13;94.80
75387;DHT22;63966;47.914;22.266;2022-11-20T19:07:59;2.10;94.59
75387;DHT22;63966;47.914;22.266;2022-11-20T19:11:07;2.14;94.49
75387;DHT22;63966;47.914;22.266;2022-11-20T19:14:11;2.18;94.47
75387;DHT22;63966;47.914;22.266;2022-11-20T19:17:15;2.29;94.35
75387;DHT22;63966;47.914;22.266;2022-11-20T19:20:20;2.24;94.11
75387;DHT22;63966;47.914;22.266;2022-11-20T19:23:23;2.08;93.98
75387;DHT22;63966;47.914;22.266;2022-11-20T19:26:27;2.03;94.23
75387;DHT22;63966;47.914;22.266;2022-11-20T19:29:31;1.93;94.40
75387;DHT22;63966;47.914;22.266;2022-11-20T19:32:35;1.83;94.42
75387;DHT22;63966;47.914;22.266;2022-11-20T19:35:38;1.74;94.50
75387;DHT22;63966;47.914;22.266;2022-11-20T19:38:45;1.68;94.64
75387;DHT22;63966;47.914;22.266;2022-11-20T19:41:50;1.64;94.75
75387;DHT22;63966;47.914;22.266;2022-11-20T19:44:54;1.68;94.86
75387;DHT22;63966;47.914;22.266;2022-11-20T19:47:58;1.64;94.90
75387;DHT22;63966;47.914;22.266;2022-11-20T19:51:12;1.57;95.07
75387;DHT22;63966;47.914;22.266;2022-11-20T19:54:17;1.45;95.07
75387;DHT22;63966;47.914;22.266;2022-11-20T19:57:20;1.38;94.95
75387;DHT22;63966;47.914;22.266;2022-11-20T20:00:24;1.28;94.98
75387;DHT22;63966;47.914;22.266;2022-11-20T20:03:35;1.15;94.97
75387;DHT22;63966;47.914;22.266;2022-11-20T20:06:39;1.08;94.68
75387;DHT22;63966;47.914;22.266;2022-11-20T20:09:43;0.99;94.64
75387;DHT22;63966;47.914;22.266;2022-11-20T20:12:47;0.97;94.70
75387;DHT22;63966;47.914;22.266;2022-11-20T20:15:51;0.90;94.79
75387;DHT22;63966;47.914;22.266;2022-11-20T20:18:56;0.76;95.02
75387;DHT22;63966;47.914;22.266;2022-11-20T20:22:00;0.76;95.16
75387;DHT22;63966;47.914;22.266;2022-11-20T20:25:04;0.81;95.33
75387;DHT22;63966;47.914;22.266;2022-11-20T20:28:08;0.85;95.49
75387;DHT22;63966;47.914;22.266;2022-11-20T20:31:14;0.74;95.02
75387;DHT22;63966;47.914;22.266;2022-11-20T20:34:18;0.64;94.79
75387;DHT22;63966;47.914;22.266;2022-11-20T20:37:22;0.66;95.43
75387;DHT22;63966;47.914;22.266;2022-11-20T20:40:26;0.67;95.31
75387;DHT22;63966;47.914;22.266;2022-11-20T20:43:30;0.60;95.26
75387;DHT22;63966;47.914;22.266;2022-11-20T20:46:34;0.61;95.48
75387;DHT22;63966;47.914;22.266;2022-11-20T20:49:37;0.74;96.11
75387;DHT22;63966;47.914;22.266;2022-11-20T20:52:43;0.74;96.10
75387;DHT22;63966;47.914;22.266;2022-11-20T20:56:00;0.73;96.02
75387;DHT22;63966;47.914;22.266;2022-11-20T20:59:04;0.52;95.78
75387;DHT22;63966;47.914;22.266;2022-11-20T21:02:09;0.42;95.57
75387;DHT22;63966;47.914;22.266;2022-11-20T21:05:13;0.54;95.96
75387;DHT22;63966;47.914;22.266;2022-11-20T21:08:17;0.56;96.15
75387;DHT22;63966;47.914;22.266;2022-11-20T21:11:23;0.42;95.94
75387;DHT22;63966;47.914;22.266;2022-11-20T21:14:27;0.36;95.93
75387;DHT22;63966;47.914;22.266;2022-11-20T21:17:30;0.28;95.89
75387;DHT22;63966;47.914;22.266;2022-11-20T21:20:34;0.16;96.01
75387;DHT22;63966;47.914;22.266;2022-11-20T21:23:56;0.18;96.23